Time;durP1;ratioP1;P1;durP2;ratioP2;P2;SDS_P1;SDS_P2;PMS_P1;PMS_P2;Temp;Humidity;BMP_temperature;BMP_pressure;BME280_temperature;BME280_humidity;BME280_pressure;Samples;Min_cycle;Max_cycle;Signal;HPM_P1;HPM_P2
2023/02/05 00:02:12;;;;;;;9.23;6.00;;;;;;;-2.05;100.00;98183.94;6149894;23;20022;-90
2023/02/05 00:04:38;;;;;;;9.33;5.47;;;;;;;-2.08;100.00;98180.59;6151274;23;20301;-90
2023/02/05 00:07:04;;;;;;;8.30;5.13;;;;;;;-2.12;100.00;98179.81;6151159;23;20008;-90
2023/02/05 00:09:30;;;;;;;11.67;5.57;;;;;;;-2.13;100.00;98178.97;6151939;23;20100;-89
2023/02/05 00:11:57;;;;;;;9.43;5.27;;;;;;;-2.09;100.00;98182.31;6150593;23;20451;-90
2023/02/05 00:14:24;;;;;;;10.17;5.40;;;;;;;-2.06;100.00;98184.84;6181457;23;20423;-90
2023/02/05 00:16:52;;;;;;;8.83;4.73;;;;;;;-2.09;100.00;98178.91;6210475;23;20415;-90
2023/02/05 00:19:18;;;;;;;9.27;4.70;;;;;;;-2.10;100.00;98172.06;6184520;23;20794;-90
2023/02/05 00:21:45;;;;;;;7.13;4.70;;;;;;;-2.13;100.00;98171.22;6184875;23;20415;-90
2023/02/05 00:24:12;;;;;;;8.50;4.87;;;;;;;-2.17;100.00;98168.75;6185036;23;20919;-90
2023/02/05 00:26:40;;;;;;;11.53;5.63;;;;;;;-2.25;100.00;98166.34;6185627;23;20415;-90
2023/02/05 00:29:06;;;;;;;8.50;5.13;;;;;;;-2.26;100.00;98164.63;6191819;23;20423;-90
2023/02/05 00:31:31;;;;;;;9.50;5.13;;;;;;;-2.28;100.00;98158.69;6184953;23;20744;-90
2023/02/05 00:33:57;;;;;;;8.20;4.93;;;;;;;-2.26;100.00;98164.63;6210458;23;20440;-90
2023/02/05 00:36:24;;;;;;;9.33;4.97;;;;;;;-2.26;100.00;98162.06;6186095;23;20036;-90
2023/02/05 00:38:51;;;;;;;10.60;5.03;;;;;;;-2.26;100.00;98154.34;6184198;23;20411;-90
2023/02/05 00:41:18;;;;;;;9.53;5.53;;;;;;;-2.32;100.00;98153.63;6182710;23;20510;-90
2023/02/05 00:43:43;;;;;;;8.10;5.00;;;;;;;-2.27;100.00;98156.97;6184351;23;20435;-90
2023/02/05 00:46:11;;;;;;;9.50;5.70;;;;;;;-2.27;100.00;98162.97;6185411;23;20418;-90
2023/02/05 00:48:37;;;;;;;10.23;6.10;;;;;;;-2.25;100.00;98165.50;6184445;23;20771;-90
2023/02/05 00:51:03;;;;;;;9.60;4.90;;;;;;;-2.24;100.00;98162.06;6209348;23;20946;-89
2023/02/05 00:53:29;;;;;;;8.57;5.20;;;;;;;-2.25;100.00;98175.78;6176315;23;20997;-89
2023/02/05 00:55:54;;;;;;;8.20;5.10;;;;;;;-2.25;100.00;98174.06;6176635;23;20458;-90
2023/02/05 00:58:20;;;;;;;8.43;5.07;;;;;;;-2.24;100.00;98173.19;6202195;23;20012;-90
2023/02/05 01:00:48;;;;;;;9.00;4.47;;;;;;;-2.26;100.00;98172.38;6176016;23;20082;-89
2023/02/05 01:03:14;;;;;;;9.23;5.27;;;;;;;-2.28;100.00;98171.59;6176520;23;20039;-90
2023/02/05 01:05:41;;;;;;;8.97;5.07;;;;;;;-2.31;100.00;98176.78;6200938;23;20576;-89
2023/02/05 01:08:09;;;;;;;9.63;6.07;;;;;;;-2.32;100.00;98171.66;6176491;23;20786;-90
2023/02/05 01:10:36;;;;;;;10.23;5.57;;;;;;;-2.33;100.00;98169.97;6176308;23;20423;-89
2023/02/05 01:13:03;;;;;;;9.60;5.37;;;;;;;-2.34;100.00;98166.56;6176904;23;20458;-90
2023/02/05 01:15:28;;;;;;;8.47;4.67;;;;;;;-2.34;100.00;98165.72;6176163;23;20477;-90
2023/02/05 01:17:54;;;;;;;9.33;5.40;;;;;;;-2.34;100.00;98173.44;6202611;23;20399;-89
2023/02/05 01:20:20;;;;;;;9.03;5.33;;;;;;;-2.34;100.00;98168.28;6175187;23;20023;-90
2023/02/05 01:22:46;;;;;;;9.47;5.67;;;;;;;-2.37;100.00;98169.19;6183186;23;20411;-90
2023/02/05 01:25:14;;;;;;;10.33;5.53;;;;;;;-2.35;100.00;98166.56;6185081;23;20008;-89
2023/02/05 01:27:39;;;;;;;10.67;5.50;;;;;;;-2.34;100.00;98165.72;6184701;23;20787;-89
2023/02/05 01:30:07;;;;;;;8.60;4.97;;;;;;;-2.32;100.00;98158.78;6210048;23;20347;-90
2023/02/05 01:32:34;;;;;;;11.83;5.80;;;;;;;-2.43;100.00;98152.13;6184099;23;20506;-89
2023/02/05 01:35:00;;;;;;;9.13;5.30;;;;;;;-2.48;100.00;98151.38;6184574;23;21254;-89
2023/02/05 01:37:26;;;;;;;10.33;6.77;;;;;;;-2.52;100.00;98148.88;6187634;23;20439;-89
2023/02/05 01:39:51;;;;;;;10.77;5.53;;;;;;;-2.54;100.00;98146.34;6207691;23;20467;-90
2023/02/05 01:42:21;;;;;;;10.37;4.73;;;;;;;-2.52;100.00;98149.72;6179509;23;20016;-89
2023/02/05 01:45:21;;;;;;;13.17;5.73;;;;;;;-2.47;100.00;98139.34;6176400;23;20020;-90
2023/02/05 01:47:52;;;;;;;11.00;4.93;;;;;;;-2.51;100.00;98130.84;6176268;23;20437;-90
2023/02/05 01:50:26;;;;;;;10.33;4.63;;;;;;;-2.48;100.00;98127.31;6175628;23;20419;-89
2023/02/05 01:52:53;;;;;;;10.23;4.30;;;;;;;-2.51;100.00;98122.28;6175724;23;20426;-89
2023/02/05 01:55:20;;;;;;;9.33;4.57;;;;;;;-2.53;100.00;98118.88;6176709;23;20481;-90
2023/02/05 01:57:48;;;;;;;18.23;5.10;;;;;;;-2.51;100.00;98120.53;6175386;23;20512;-89
2023/02/05 02:00:13;;;;;;;8.67;4.27;;;;;;;-2.53;100.00;98121.44;6172671;23;20418;-89
2023/02/05 02:02:43;;;;;;;9.40;5.00;;;;;;;-2.59;100.00;98116.41;6173233;23;20399;-89
2023/02/05 02:05:13;;;;;;;7.63;3.87;;;;;;;-2.62;100.00;98115.63;6201709;23;20918;-89
2023/02/05 02:07:39;;;;;;;10.03;4.80;;;;;;;-2.69;100.00;98111.44;6175647;23;20419;-89
2023/02/05 02:10:08;;;;;;;12.47;5.37;;;;;;;-2.65;100.00;98115.69;6200842;23;20934;-89
2023/02/05 02:12:36;;;;;;;9.10;4.53;;;;;;;-2.58;100.00;98112.94;6184206;23;20434;-89
2023/02/05 02:15:08;;;;;;;13.60;4.43;;;;;;;-2.61;100.00;98107.00;6210362;23;20870;-90
2023/02/05 02:17:38;;;;;;;9.37;4.00;;;;;;;-2.55;100.00;98108.56;6210189;23;20434;-89
2023/02/05 02:20:06;;;;;;;8.00;3.70;;;;;;;-2.51;100.00;98099.09;6209296;23;20942;-89
2023/02/05 02:22:51;;;;;;;5.70;2.80;;;;;;;-2.43;100.00;98092.88;6183140;23;20745;-90
2023/02/05 02:25:29;;;;;;;7.70;2.93;;;;;;;-2.32;100.00;98086.63;6184050;23;20407;-90
2023/02/05 02:28:22;;;;;;;7.47;3.13;;;;;;;-2.36;100.00;98078.13;6184201;23;20419;-90
2023/02/05 02:31:15;;;;;;;8.57;3.23;;;;;;;-2.37;100.00;98066.13;6208195;23;20511;-89
2023/02/05 02:33:51;;;;;;;4.53;2.10;;;;;;;-2.39;100.00;98068.72;6183933;23;20516;-89
2023/02/05 02:36:31;;;;;;;10.67;3.30;;;;;;;-2.41;100.00;98067.94;6183982;23;20392;-89
2023/02/05 02:39:02;;;;;;;6.47;3.23;;;;;;;-2.41;100.00;98065.34;6183457;23;20415;-89
2023/02/05 02:41:35;;;;;;;5.80;2.80;;;;;;;-2.45;100.00;98062.84;6183138;23;20427;-89
2023/02/05 02:44:15;;;;;;;5.10;2.22;;;;;;;-2.56;100.00;98081.13;6183594;23;20431;-89
2023/02/05 02:46:44;;;;;;;5.37;2.47;;;;;;;-2.67;100.00;98073.66;6184574;23;20101;-89
2023/02/05 02:49:25;;;;;;;10.00;4.23;;;;;;;-2.67;100.00;98076.22;6208871;23;20427;-89
2023/02/05 02:51:52;;;;;;;10.23;5.00;;;;;;;-2.71;100.00;98072.03;6208674;23;20419;-89
2023/02/05 02:54:20;;;;;;;10.07;4.73;;;;;;;-2.86;100.00;98069.75;6183496;23;20930;-89
2023/02/05 02:56:47;;;;;;;8.13;4.83;;;;;;;-2.87;100.00;98065.50;6182886;23;20422;-89
2023/02/05 02:59:17;;;;;;;8.77;4.33;;;;;;;-2.93;100.00;98063.88;6183265;23;20430;-89
2023/02/05 03:01:48;;;;;;;8.27;3.87;;;;;;;-2.87;100.00;98070.66;6185171;23;20484;-89
2023/02/05 03:04:21;;;;;;;11.27;4.30;;;;;;;-2.83;100.00;98067.13;6211902;23;20430;-90
2023/02/05 03:06:50;;;;;;;9.17;4.37;;;;;;;-2.99;100.00;98071.72;6186533;23;20438;-89
2023/02/05 03:09:48;;;;;;;6.77;3.77;;;;;;;-3.06;100.00;98069.31;6186287;23;20926;-88
2023/02/05 03:12:17;;;;;;;7.57;4.17;;;;;;;-3.03;100.00;98074.41;6187623;23;20505;-90
2023/02/05 03:14:43;;;;;;;8.57;3.63;;;;;;;-3.08;100.00;98066.78;6212273;23;20442;-89
2023/02/05 03:17:09;;;;;;;8.17;4.40;;;;;;;-3.11;100.00;98069.41;6185156;23;20399;-89
2023/02/05 03:19:35;;;;;;;6.70;3.67;;;;;;;-3.12;100.00;98076.28;6186659;23;20106;-89
2023/02/05 03:22:03;;;;;;;6.93;3.93;;;;;;;-3.03;100.00;98066.69;6186516;23;20602;-89
2023/02/05 03:24:31;;;;;;;8.17;4.00;;;;;;;-3.04;100.00;98067.56;6186691;23;20465;-89
2023/02/05 03:26:57;;;;;;;7.33;4.07;;;;;;;-3.03;100.00;98064.94;6187355;23;20699;-89
2023/02/05 03:29:31;;;;;;;8.07;4.47;;;;;;;-3.07;100.00;98063.31;6187395;23;20427;-89
2023/02/05 03:32:31;;;;;;;8.90;4.20;;;;;;;-3.11;100.00;98062.53;6188495;23;20430;-89
2023/02/05 03:35:16;;;;;;;6.50;3.43;;;;;;;-3.12;100.00;98049.69;6187429;23;20961;-90
2023/02/05 03:38:02;;;;;;;7.77;4.23;;;;;;;-3.08;100.00;98047.03;6212908;23;20956;-90
2023/02/05 03:40:46;;;;;;;;;;;;;;;-3.01;100.00;98052.06;6186705;23;20855;-90
2023/02/05 03:43:29;;;;;;;7.23;3.43;;;;;;;-2.96;100.00;98045.09;6188039;23;20138;-90
2023/02/05 03:46:07;;;;;;;6.97;3.37;;;;;;;-2.89;100.00;98051.78;6181818;23;20946;-90
2023/02/05 03:48:51;;;;;;;6.93;3.30;;;;;;;-2.86;100.00;98042.28;6212860;23;20430;-89
2023/02/05 03:51:23;;;;;;;6.97;3.33;;;;;;;-2.81;100.00;98042.19;6188258;23;20430;-89
2023/02/05 03:54:30;;;;;;;5.07;2.73;;;;;;;-2.79;100.00;98043.00;6190076;23;20091;-89
2023/02/05 03:57:07;;;;;;;6.60;2.90;;;;;;;-2.74;100.00;98046.34;6194044;23;20441;-89
2023/02/05 03:59:37;;;;;;;7.87;4.00;;;;;;;-2.73;100.00;98032.56;6213944;23;20949;-89
2023/02/05 04:02:04;;;;;;;6.20;2.80;;;;;;;-2.72;100.00;98021.38;6187286;23;20415;-89
2023/02/05 04:04:33;;;;;;;6.07;3.13;;;;;;;-2.72;100.00;98021.38;6187112;23;20455;-89
2023/02/05 04:07:01;;;;;;;5.90;2.43;;;;;;;-2.73;100.00;98022.28;6187282;23;20414;-88
2023/02/05 04:09:27;;;;;;;5.43;2.70;;;;;;;-2.72;100.00;98026.53;6184883;23;20433;-89
2023/02/05 04:11:54;;;;;;;7.50;2.83;;;;;;;-2.74;100.00;98036.03;6185669;23;20426;-90
2023/02/05 04:14:20;;;;;;;5.73;2.23;;;;;;;-2.71;100.00;98035.97;6185698;23;20473;-89
2023/02/05 04:16:46;;;;;;;4.33;2.27;;;;;;;-2.69;100.00;98030.78;6185468;23;20941;-90
2023/02/05 04:19:12;;;;;;;6.40;3.00;;;;;;;-2.68;100.00;98028.19;6185535;23;20012;-89
2023/02/05 04:21:38;;;;;;;5.90;2.43;;;;;;;-2.68;100.00;98015.31;6185870;23;20011;-89
2023/02/05 04:24:05;;;;;;;7.30;3.20;;;;;;;-2.63;100.00;98017.75;6210133;23;20019;-89
2023/02/05 04:26:31;;;;;;;8.13;2.80;;;;;;;-2.59;100.00;98008.25;6185883;23;20411;-89
2023/02/05 04:29:01;;;;;;;6.60;2.50;;;;;;;-2.61;100.00;98016.00;6186862;23;20918;-89
2023/02/05 04:31:30;;;;;;;5.27;2.23;;;;;;;-2.59;100.00;98011.66;6185241;23;20956;-89
2023/02/05 04:33:56;;;;;;;5.53;2.77;;;;;;;-2.54;100.00;98014.16;6210544;23;20485;-89
2023/02/05 04:36:21;;;;;;;7.43;2.57;;;;;;;-2.52;100.00;98014.94;6185007;23;20031;-89
2023/02/05 04:38:47;;;;;;;5.40;2.90;;;;;;;-2.49;100.00;98015.72;6184421;23;20020;-89
2023/02/05 04:41:13;;;;;;;7.07;2.60;;;;;;;-2.47;100.00;98023.41;6209027;23;20375;-90
2023/02/05 04:43:39;;;;;;;5.80;2.73;;;;;;;-2.46;100.00;98019.97;6185196;23;20586;-89
2023/02/05 04:46:09;;;;;;;6.90;2.67;;;;;;;-2.44;100.00;98015.63;6180025;23;20019;-89
2023/02/05 04:48:36;;;;;;;6.47;2.57;;;;;;;-2.45;100.00;98026.78;6179762;23;20021;-90
2023/02/05 04:51:06;;;;;;;5.73;2.63;;;;;;;-2.39;100.00;98016.34;6155227;23;20420;-90
2023/02/05 04:53:32;;;;;;;4.93;2.73;;;;;;;-2.39;100.00;98024.06;6155236;23;20434;-89
2023/02/05 04:56:05;;;;;;;5.63;3.20;;;;;;;-2.38;100.00;98029.22;6154594;23;20428;-89
2023/02/05 04:58:31;;;;;;;7.50;2.73;;;;;;;-2.34;100.00;98029.97;6179981;23;20012;-89
2023/02/05 05:00:57;;;;;;;4.37;2.10;;;;;;;-2.36;100.00;98021.44;6154880;23;20020;-89
2023/02/05 05:03:22;;;;;;;7.33;3.00;;;;;;;-2.33;100.00;98016.22;6154336;23;20449;-90
2023/02/05 05:05:48;;;;;;;7.80;3.40;;;;;;;-2.30;100.00;98010.16;6154700;23;20008;-90
2023/02/05 05:08:14;;;;;;;6.73;2.80;;;;;;;-2.23;100.00;98009.94;6154767;23;20609;-90
2023/02/05 05:10:41;;;;;;;6.10;2.63;;;;;;;-2.21;100.00;98009.94;6154083;23;20023;-89
2023/02/05 05:13:06;;;;;;;8.53;3.30;;;;;;;-2.21;100.00;98010.78;6154147;23;20432;-89
2023/02/05 05:15:32;;;;;;;7.33;3.43;;;;;;;-2.18;100.00;98013.28;6154582;23;20446;-89
2023/02/05 05:17:58;;;;;;;4.30;2.43;;;;;;;-2.15;100.00;98020.06;6154122;23;20388;-90
2023/02/05 05:20:23;;;;;;;5.50;3.23;;;;;;;-2.14;100.00;98012.31;6154330;23;20066;-89
2023/02/05 05:22:49;;;;;;;6.27;2.90;;;;;;;-2.14;100.00;98008.88;6179615;23;20016;-89
2023/02/05 05:25:15;;;;;;;6.37;2.90;;;;;;;-2.08;100.00;98008.72;6155432;23;20013;-90
2023/02/05 05:27:41;;;;;;;5.53;2.73;;;;;;;-2.09;100.00;98007.03;6178476;23;20051;-90
2023/02/05 05:30:07;;;;;;;7.37;3.40;;;;;;;-2.04;100.00;98005.19;6154529;23;20337;-89
2023/02/05 05:32:32;;;;;;;6.83;3.50;;;;;;;-2.02;100.00;98013.72;6153847;23;20013;-89
2023/02/05 05:34:58;;;;;;;7.40;3.27;;;;;;;-1.96;100.00;98020.47;6179387;23;20435;-89
2023/02/05 05:37:24;;;;;;;6.00;3.37;;;;;;;-1.91;100.00;98018.63;6177798;23;20066;-89
2023/02/05 05:45:18;;;;;;;8.60;4.00;;;;;;;-1.81;100.00;98025.25;6212652;23;20415;-89
2023/02/05 05:47:43;;;;;;;8.37;3.37;;;;;;;-1.75;100.00;98022.50;6175018;23;20445;-89
2023/02/05 05:50:09;;;;;;;6.67;3.00;;;;;;;-1.77;100.00;98021.69;6176269;23;20019;-89
2023/02/05 05:52:34;;;;;;;10.60;3.70;;;;;;;-1.78;100.00;98011.41;6174982;23;20023;-89
2023/02/05 05:55:00;;;;;;;8.77;3.37;;;;;;;-1.80;100.00;98013.19;6175783;23;20429;-89
2023/02/05 05:57:26;;;;;;;7.50;3.73;;;;;;;-1.79;100.00;98013.16;6177390;23;20511;-89
2023/02/05 05:59:52;;;;;;;9.23;4.83;;;;;;;-1.72;100.00;98017.25;6176868;23;20046;-90
2023/02/05 06:02:17;;;;;;;10.10;5.73;;;;;;;-1.69;100.00;98024.06;6201631;23;20345;-89
2023/02/05 06:04:43;;;;;;;10.27;4.87;;;;;;;-1.67;100.00;98019.72;6175092;23;20012;-90
2023/02/05 06:07:09;;;;;;;9.00;4.90;;;;;;;-1.70;100.00;98018.06;6177309;23;20012;-90
2023/02/05 06:09:34;;;;;;;8.93;4.63;;;;;;;-1.67;100.00;98022.31;6185030;23;20055;-89
2023/02/05 06:12:00;;;;;;;9.80;4.77;;;;;;;-1.74;100.00;98011.31;6184320;23;20012;-89
2023/02/05 06:14:26;;;;;;;6.90;3.80;;;;;;;-1.77;100.00;98011.38;6185003;23;20383;-89
2023/02/05 06:16:54;;;;;;;7.33;3.97;;;;;;;-1.76;100.00;98017.38;6177586;23;20047;-89
2023/02/05 06:19:19;;;;;;;7.20;4.10;;;;;;;-1.76;100.00;98013.06;6199629;23;20103;-90
2023/02/05 06:21:45;;;;;;;8.07;3.93;;;;;;;-1.74;100.00;98015.63;6199769;23;20549;-90
2023/02/05 06:24:11;;;;;;;6.83;3.30;;;;;;;-1.69;100.00;98021.50;6173460;23;20476;-89
2023/02/05 06:26:36;;;;;;;7.30;3.47;;;;;;;-1.72;100.00;98009.50;6174615;23;20393;-89
2023/02/05 06:29:02;;;;;;;7.63;4.40;;;;;;;-1.73;100.00;98013.00;6175657;23;20040;-89
2023/02/05 06:31:29;;;;;;;7.97;3.93;;;;;;;-1.60;100.00;98020.41;6198636;23;20016;-89
2023/02/05 06:33:55;;;;;;;8.13;4.33;;;;;;;-1.60;100.00;98016.09;6172722;23;20027;-89
2023/02/05 06:36:21;;;;;;;11.90;5.50;;;;;;;-1.62;100.00;98010.13;6173870;23;20431;-90
2023/02/05 06:38:46;;;;;;;10.67;5.27;;;;;;;-1.59;100.00;98002.31;6173422;23;20026;-89
2023/02/05 06:41:12;;;;;;;12.47;7.53;;;;;;;-1.59;100.00;97993.72;6173934;23;20119;-89
2023/02/05 06:43:38;;;;;;;26.37;16.73;;;;;;;-1.57;100.00;97989.38;6174763;23;20019;-90
2023/02/05 06:46:03;;;;;;;18.17;12.13;;;;;;;-1.57;100.00;97992.81;6178012;23;20020;-89
2023/02/05 06:48:29;;;;;;;16.23;10.17;;;;;;;-1.58;100.00;97996.25;6186987;23;20016;-90
2023/02/05 06:50:55;;;;;;;15.43;8.47;;;;;;;-1.59;100.00;98001.47;6185418;23;20113;-89
2023/02/05 06:53:20;;;;;;;51.70;26.23;;;;;;;-1.62;100.00;97996.38;6186438;23;20008;-90
2023/02/05 06:55:46;;;;;;;48.23;26.13;;;;;;;-1.57;100.00;97999.69;6185954;23;20016;-89
2023/02/05 06:58:12;;;;;;;19.53;12.77;;;;;;;-1.55;100.00;97995.31;6189331;23;20217;-89
2023/02/05 07:00:37;;;;;;;15.60;8.23;;;;;;;-1.50;100.00;97996.06;6185850;23;20043;-89
2023/02/05 07:03:03;;;;;;;10.63;6.63;;;;;;;-1.46;100.00;97990.75;6225252;23;20454;-90
2023/02/05 07:05:29;;;;;;;12.40;6.90;;;;;;;-1.38;100.00;97992.28;6186451;23;20009;-90
2023/02/05 07:07:54;;;;;;;15.30;7.30;;;;;;;-1.33;100.00;98000.75;6186863;23;20008;-89
2023/02/05 07:10:20;;;;;;;21.10;7.47;;;;;;;-1.30;100.00;98004.09;6182998;23;20015;-89
2023/02/05 07:12:46;;;;;;;12.60;7.63;;;;;;;-1.21;100.00;98003.84;6185173;23;20538;-91
2023/02/05 07:15:11;;;;;;;13.27;7.73;;;;;;;-1.20;100.00;98002.94;6185339;23;20027;-91
2023/02/05 07:17:38;;;;;;;13.17;7.60;;;;;;;-1.20;100.00;97999.53;6187245;23;20018;-91
2023/02/05 07:20:04;;;;;;;15.40;8.33;;;;;;;-1.10;100.00;98005.28;6188616;23;20019;-91
2023/02/05 07:22:30;;;;;;;14.83;7.83;;;;;;;-1.03;100.00;98006.78;6202210;22;20427;-91
2023/02/05 07:24:56;;;;;;;15.47;9.33;;;;;;;-1.03;100.00;98004.19;6216077;23;20359;-92
2023/02/05 07:27:23;;;;;;;13.80;7.47;;;;;;;-0.97;100.00;98009.19;6194745;23;20020;-91
2023/02/05 07:29:48;;;;;;;14.07;7.57;;;;;;;-0.83;100.00;98001.88;6192668;23;20423;-91
2023/02/05 07:32:14;;;;;;;10.17;6.27;;;;;;;-0.81;100.00;98007.81;6194955;23;20964;-91
2023/02/05 07:34:52;;;;;;;10.87;6.23;;;;;;;-0.67;100.00;97999.69;6192693;23;20089;-91
2023/02/05 07:37:18;;;;;;;9.47;5.87;;;;;;;-0.57;100.00;97998.50;6193523;23;20047;-91
2023/02/05 07:39:43;;;;;;;11.27;6.03;;;;;;;-0.54;100.00;98000.13;6218160;23;20414;-91
2023/02/05 07:42:09;;;;;;;8.63;4.67;;;;;;;-0.37;100.00;98003.06;6216608;23;20003;-91
2023/02/05 07:44:42;;;;;;;9.43;5.90;;;;;;;-0.18;100.00;97997.28;6192069;23;20018;-90
2023/02/05 07:47:08;;;;;;;10.80;6.07;;;;;;;-0.32;100.00;97993.41;6189368;23;20012;-91
2023/02/05 07:49:33;;;;;;;11.20;5.90;;;;;;;-0.33;100.00;97986.56;6192607;23;20027;-91
2023/02/05 07:51:59;;;;;;;10.63;6.93;;;;;;;-0.24;100.00;97985.38;6219197;23;20055;-91
2023/02/05 07:54:25;;;;;;;9.73;5.37;;;;;;;-0.25;100.00;97974.22;6192840;23;20024;-91
2023/02/05 07:56:50;;;;;;;9.23;4.73;;;;;;;-0.29;100.00;97975.22;6217398;23;20016;-91
2023/02/05 07:59:16;;;;;;;12.33;5.37;;;;;;;-0.28;100.00;97963.97;6194686;23;20012;-90
2023/02/05 08:01:41;;;;;;;10.60;5.77;;;;;;;-0.25;100.00;97966.44;6221668;23;20027;-91
2023/02/05 08:04:07;;;;;;;10.73;6.00;;;;;;;-0.27;100.00;97957.91;6215563;23;20043;-90
2023/02/05 08:06:33;;;;;;;10.83;5.80;;;;;;;-0.26;100.00;97954.44;6215857;23;20016;-92
2023/02/05 08:09:00;;;;;;;14.33;7.27;;;;;;;-0.27;100.00;97959.63;6191403;23;20020;-91
2023/02/05 08:11:26;;;;;;;15.70;8.57;;;;;;;-0.20;100.00;97961.16;6190322;23;20751;-91
2023/02/05 08:13:52;;;;;;;13.67;7.43;;;;;;;-0.16;100.00;97967.91;6190691;23;20454;-91
2023/02/05 08:16:17;;;;;;;16.07;7.83;;;;;;;0.03;100.00;97968.13;6190482;23;20019;-91
2023/02/05 08:18:49;;;;;;;12.50;6.60;;;;;;;0.19;100.00;97974.47;6214915;23;20023;-91
2023/02/05 08:21:16;;;;;;;9.50;5.37;;;;;;;0.33;100.00;97960.19;6216347;23;20019;-91
2023/02/05 08:23:41;;;;;;;11.10;5.57;;;;;;;0.49;100.00;97947.56;6192725;23;20422;-91
2023/02/05 08:26:07;;;;;;;14.20;6.60;;;;;;;0.46;100.00;97958.88;6191455;23;20461;-91
2023/02/05 08:28:33;;;;;;;23.23;9.07;;;;;;;0.39;100.00;97953.06;6193696;23;20035;-91
2023/02/05 08:30:58;;;;;;;14.83;7.73;;;;;;;0.42;100.00;97954.72;6217525;23;20019;-91
2023/02/05 08:33:24;;;;;;;12.73;5.97;;;;;;;0.31;100.00;97949.91;6192233;23;20050;-91
2023/02/05 08:35:51;;;;;;;11.07;5.90;;;;;;;0.22;100.00;97945.91;6215577;23;20036;-92
2023/02/05 08:38:17;;;;;;;12.20;6.47;;;;;;;0.23;100.00;97942.44;6216723;23;20015;-90
2023/02/05 08:40:42;;;;;;;11.93;6.47;;;;;;;0.26;100.00;97944.03;6193579;23;20645;-91
2023/02/05 08:43:08;;;;;;;16.20;7.03;;;;;;;0.35;100.00;97955.81;6192999;23;20039;-91
2023/02/05 08:45:44;;;;;;;11.83;5.83;;;;;;;0.54;100.00;97943.06;6189427;23;20050;-91
2023/02/05 08:48:10;;;;;;;11.57;5.80;;;;;;;0.65;100.00;97946.97;6187305;23;20027;-91
2023/02/05 08:50:36;;;;;;;13.33;6.73;;;;;;;0.62;100.00;97946.22;6214419;23;20423;-91
2023/02/05 08:53:02;;;;;;;12.80;7.17;;;;;;;0.60;100.00;97938.50;6194937;23;20422;-90
2023/02/05 08:55:27;;;;;;;11.37;7.23;;;;;;;0.44;100.00;97937.41;6216249;23;20012;-91
2023/02/05 08:57:54;;;;;;;13.10;7.40;;;;;;;0.45;100.00;97933.91;6191005;23;20042;-91
2023/02/05 09:00:20;;;;;;;14.20;8.37;;;;;;;0.45;100.00;97931.31;6191919;23;20073;-91
2023/02/05 09:02:46;;;;;;;12.80;7.07;;;;;;;0.47;100.00;97932.09;6202123;23;20463;-91
2023/02/05 09:05:12;;;;;;;14.53;8.07;;;;;;;0.48;100.00;97920.84;6226515;23;20427;-91
2023/02/05 09:07:38;;;;;;;22.03;10.77;;;;;;;0.52;100.00;97919.00;6217927;23;20412;-92
2023/02/05 09:10:07;;;;;;;20.83;9.77;;;;;;;0.50;100.00;97911.25;6216023;23;20018;-92
2023/02/05 09:12:32;;;;;;;17.60;9.23;;;;;;;0.59;100.00;97895.41;6189117;23;20423;-92
2023/02/05 09:14:58;;;;;;;16.30;9.67;;;;;;;0.69;100.00;97888.13;6214255;23;20427;-92
2023/02/05 09:17:24;;;;;;;21.23;12.23;;;;;;;0.83;100.00;97888.44;6189874;23;20028;-91
2023/02/05 09:19:50;;;;;;;14.83;8.33;;;;;;;0.98;100.00;97879.25;6192311;23;20019;-90
2023/02/05 09:22:17;;;;;;;12.70;7.33;;;;;;;0.90;100.00;97874.34;6216756;23;20019;-91
2023/02/05 09:24:42;;;;;;;13.70;6.97;;;;;;;0.98;100.00;97871.50;6218817;23;20007;-92
2023/02/05 09:27:12;;;;;;;9.93;6.03;;;;;;;1.02;100.00;97879.97;6192867;23;20406;-91
2023/02/05 09:29:39;;;;;;;17.20;7.20;;;;;;;0.98;100.00;97866.31;6218999;23;20008;-92
2023/02/05 09:32:57;;;;;;;12.13;7.27;;;;;;;1.16;100.00;97875.94;6193274;23;20466;-92
2023/02/05 09:35:23;;;;;;;12.47;6.83;;;;;;;1.15;100.00;97881.19;6193323;23;20748;-91
2023/02/05 09:37:49;;;;;;;14.43;7.00;;;;;;;1.07;100.00;97878.03;6220883;23;20782;-93
2023/02/05 09:40:26;;;;;;;30.13;16.57;;;;;;;0.99;100.00;97878.34;6223053;23;20004;-93
2023/02/05 09:43:16;;;;;;;38.63;20.47;;;;;;;0.96;100.00;97873.28;6196603;23;20423;-90
2023/02/05 09:45:50;;;;;;;20.60;11.70;;;;;;;0.99;100.00;97880.09;6241539;23;20406;-90
2023/02/05 09:48:28;;;;;;;22.57;9.97;;;;;;;1.10;100.00;97883.94;6191685;23;20018;-88
2023/02/05 09:50:56;;;;;;;14.00;7.70;;;;;;;1.18;100.00;97876.72;6191158;23;20440;-89
2023/02/05 09:53:27;;;;;;;15.33;8.13;;;;;;;1.22;100.00;97882.63;6187912;23;20445;-89
2023/02/05 09:55:58;;;;;;;13.23;8.17;;;;;;;1.25;100.00;97868.72;6190482;23;20020;-89
2023/02/05 09:58:30;;;;;;;16.83;7.33;;;;;;;1.26;100.00;97866.03;6215210;23;20099;-93
2023/02/05 10:01:02;;;;;;;14.00;6.95;;;;;;;1.36;100.00;97863.94;6188225;23;20019;-90
2023/02/05 10:03:48;;;;;;;13.23;8.20;;;;;;;1.26;100.00;97860.03;6190625;23;20095;-92
2023/02/05 10:06:48;;;;;;;14.83;7.57;;;;;;;1.35;100.00;97862.25;6190974;23;20366;-88
2023/02/05 10:09:35;;;;;;;15.87;9.60;;;;;;;1.45;100.00;97854.94;6193993;23;20502;-88
2023/02/05 10:12:11;;;;;;;18.20;8.80;;;;;;;1.32;100.00;97854.59;6215884;23;20012;-91
2023/02/05 10:15:02;;;;;;;20.20;8.47;;;;;;;1.29;100.00;97857.31;6192912;23;20769;-92
2023/02/05 10:17:56;;;;;;;15.70;8.70;;;;;;;1.35;100.00;97854.47;6192411;23;20510;-93
2023/02/05 10:20:47;;;;;;;16.15;8.77;;;;;;;1.30;100.00;97846.03;6190033;23;20016;-90
2023/02/05 10:23:39;;;;;;;14.60;7.83;;;;;;;1.31;100.00;97845.16;6197908;23;20016;-94
2023/02/05 10:26:11;;;;;;;12.83;7.63;;;;;;;1.23;100.00;97842.00;6219237;23;20008;-91
2023/02/05 10:29:14;;;;;;;17.73;8.10;;;;;;;1.34;100.00;97837.22;6217207;23;20008;-92
2023/02/05 10:31:57;;;;;;;17.77;9.00;;;;;;;1.41;100.00;97844.69;6223739;23;20016;-93
2023/02/05 10:34:58;;;;;;;17.37;8.67;;;;;;;1.49;100.00;97841.78;6195823;23;20436;-95
2023/02/05 10:37:52;;;;;;;15.40;7.87;;;;;;;1.39;100.00;97845.66;6192296;23;20019;-95
2023/02/05 10:40:38;;;;;;;14.25;8.30;;;;;;;1.51;100.00;97831.34;6214575;23;20450;-94
2023/02/05 10:43:25;;;;;;;14.93;8.53;;;;;;;1.55;100.00;97830.31;6193782;23;20042;-94
2023/02/05 10:45:54;;;;;;;18.27;10.10;;;;;;;1.58;100.00;97819.81;6190746;23;20020;-90
2023/02/05 10:48:38;;;;;;;18.63;11.50;;;;;;;1.66;100.00;97833.28;6197460;23;20008;-90
2023/02/05 10:51:42;;;;;;;20.03;11.70;;;;;;;1.51;100.00;97834.78;6195203;23;20012;-90
2023/02/05 10:54:34;;;;;;;17.85;10.80;;;;;;;1.42;100.00;97835.16;6196316;23;20015;-91
2023/02/05 10:57:00;;;;;;;13.63;9.50;;;;;;;1.32;100.00;97837.28;6187005;23;20024;-90
2023/02/05 10:59:29;;;;;;;17.57;9.80;;;;;;;1.31;100.00;97842.56;6192451;23;20095;-91
2023/02/05 11:02:02;;;;;;;13.87;9.10;;;;;;;1.34;100.00;97837.22;6192252;23;20003;-90
2023/02/05 11:04:48;;;;;;;16.85;8.90;;;;;;;1.22;100.00;97832.56;6190869;23;20034;-89
2023/02/05 11:07:28;;;;;;;12.37;7.47;;;;;;;1.24;100.00;97836.78;6188316;23;20020;-90
2023/02/05 11:09:54;;;;;;;16.27;8.47;;;;;;;1.20;100.00;97831.75;6188120;23;20099;-90
2023/02/05 11:12:29;;;;;;;14.30;8.73;;;;;;;1.01;100.00;97826.50;6186811;23;20091;-89
2023/02/05 11:15:00;;;;;;;14.20;9.47;;;;;;;1.14;100.00;97825.94;6188496;23;20019;-88
2023/02/05 11:17:35;;;;;;;16.23;10.40;;;;;;;1.03;100.00;97822.91;6189957;23;20459;-89
2023/02/05 11:20:24;;;;;;;17.40;10.57;;;;;;;0.99;100.00;97821.34;6217218;23;20447;-88
2023/02/05 11:23:14;;;;;;;17.27;9.20;;;;;;;0.90;100.00;97816.53;6217239;23;20020;-87
2023/02/05 11:26:00;;;;;;;18.70;10.27;;;;;;;0.92;100.00;97820.75;6221963;22;20020;-89
2023/02/05 11:28:27;;;;;;;21.37;11.40;;;;;;;0.90;100.00;97824.31;6215319;23;20016;-89
2023/02/05 11:30:52;;;;;;;18.63;11.20;;;;;;;0.95;100.00;97819.81;6185498;23;20439;-88
2023/02/05 11:33:21;;;;;;;18.97;10.20;;;;;;;0.88;100.00;97819.19;6186752;23;20012;-89
2023/02/05 11:36:04;;;;;;;16.43;9.70;;;;;;;0.82;100.00;97813.41;6188608;23;20020;-89
2023/02/05 11:38:32;;;;;;;24.93;11.70;;;;;;;0.75;100.00;97811.97;6187554;23;20020;-89
2023/02/05 11:41:03;;;;;;;31.43;14.77;;;;;;;0.82;100.00;97803.91;6189330;23;20020;-89
2023/02/05 11:43:49;;;;;;;24.20;13.60;;;;;;;0.94;100.00;97803.44;6194933;23;20023;-88